sensor_id;sensor_type;location;lat;lon;timestamp;P1;durP1;ratioP1;P2;durP2;ratioP2
18822;SDS011;9540;51.550;7.980;2023-04-30T00:00:59;13.33;;;9.03;;
18822;SDS011;9540;51.550;7.980;2023-04-30T00:03:26;15.87;;;8.90;;
18822;SDS011;9540;51.550;7.980;2023-04-30T00:05:55;14.13;;;9.03;;
18822;SDS011;9540;51.550;7.980;2023-04-30T00:08:22;10.07;;;7.20;;
18822;SDS011;9540;51.550;7.980;2023-04-30T00:10:49;13.93;;;8.30;;
18822;SDS011;9540;51.550;7.980;2023-04-30T00:13:16;14.33;;;8.07;;
18822;SDS011;9540;51.550;7.980;2023-04-30T00:15:44;9.40;;;7.20;;
18822;SDS011;9540;51.550;7.980;2023-04-30T00:18:11;13.30;;;7.87;;
18822;SDS011;9540;51.550;7.980;2023-04-30T00:20:38;12.47;;;8.53;;
18822;SDS011;9540;51.550;7.980;2023-04-30T00:23:06;13.03;;;8.67;;
18822;SDS011;9540;51.550;7.980;2023-04-30T00:25:33;14.13;;;7.90;;
18822;SDS011;9540;51.550;7.980;2023-04-30T00:28:01;12.83;;;8.07;;
18822;SDS011;9540;51.550;7.980;2023-04-30T00:30:28;15.43;;;9.33;;
18822;SDS011;9540;51.550;7.980;2023-04-30T00:32:56;10.13;;;7.93;;
18822;SDS011;9540;51.550;7.980;2023-04-30T00:35:23;12.30;;;8.60;;
18822;SDS011;9540;51.550;7.980;2023-04-30T00:37:50;15.90;;;8.57;;
18822;SDS011;9540;51.550;7.980;2023-04-30T00:40:18;11.97;;;7.80;;
18822;SDS011;9540;51.550;7.980;2023-04-30T00:42:46;10.73;;;7.17;;
18822;SDS011;9540;51.550;7.980;2023-04-30T00:45:13;14.63;;;9.43;;
18822;SDS011;9540;51.550;7.980;2023-04-30T00:47:42;13.93;;;8.87;;
18822;SDS011;9540;51.550;7.980;2023-04-30T00:50:09;14.07;;;7.80;;
18822;SDS011;9540;51.550;7.980;2023-04-30T00:52:39;13.73;;;8.70;;
18822;SDS011;9540;51.550;7.980;2023-04-30T00:55:07;16.53;;;9.73;;
18822;SDS011;9540;51.550;7.980;2023-04-30T00:57:37;14.13;;;9.00;;
18822;SDS011;9540;51.550;7.980;2023-04-30T01:00:05;15.97;;;10.17;;
18822;SDS011;9540;51.550;7.980;2023-04-30T01:02:35;18.43;;;10.57;;
18822;SDS011;9540;51.550;7.980;2023-04-30T01:05:03;20.07;;;11.00;;
18822;SDS011;9540;51.550;7.980;2023-04-30T01:07:31;18.50;;;11.37;;
18822;SDS011;9540;51.550;7.980;2023-04-30T01:09:59;22.37;;;11.40;;
18822;SDS011;9540;51.550;7.980;2023-04-30T01:12:28;20.17;;;12.13;;
18822;SDS011;9540;51.550;7.980;2023-04-30T01:15:07;17.77;;;11.50;;
18822;SDS011;9540;51.550;7.980;2023-04-30T01:17:40;16.90;;;10.77;;
18822;SDS011;9540;51.550;7.980;2023-04-30T01:20:13;16.07;;;10.60;;
18822;SDS011;9540;51.550;7.980;2023-04-30T01:22:44;25.73;;;11.00;;
18822;SDS011;9540;51.550;7.980;2023-04-30T01:25:21;18.97;;;10.27;;
18822;SDS011;9540;51.550;7.980;2023-04-30T01:28:02;17.57;;;10.20;;
18822;SDS011;9540;51.550;7.980;2023-04-30T01:30:32;18.57;;;10.80;;
18822;SDS011;9540;51.550;7.980;2023-04-30T01:33:00;16.60;;;10.73;;
18822;SDS011;9540;51.550;7.980;2023-04-30T01:35:32;16.00;;;10.60;;
18822;SDS011;9540;51.550;7.980;2023-04-30T01:38:26;14.13;;;9.07;;
18822;SDS011;9540;51.550;7.980;2023-04-30T01:41:03;18.70;;;9.80;;
18822;SDS011;9540;51.550;7.980;2023-04-30T01:43:39;17.50;;;10.07;;
18822;SDS011;9540;51.550;7.980;2023-04-30T01:46:17;16.63;;;10.13;;
18822;SDS011;9540;51.550;7.980;2023-04-30T01:48:48;20.03;;;11.63;;
18822;SDS011;9540;51.550;7.980;2023-04-30T01:51:22;23.30;;;11.67;;
18822;SDS011;9540;51.550;7.980;2023-04-30T01:53:56;17.03;;;10.07;;
18822;SDS011;9540;51.550;7.980;2023-04-30T01:56:29;19.20;;;11.17;;
18822;SDS011;9540;51.550;7.980;2023-04-30T01:58:59;15.83;;;10.30;;
18822;SDS011;9540;51.550;7.980;2023-04-30T02:01:29;15.03;;;8.93;;
18822;SDS011;9540;51.550;7.980;2023-04-30T02:03:57;16.20;;;9.67;;
18822;SDS011;9540;51.550;7.980;2023-04-30T02:06:24;14.60;;;9.50;;
18822;SDS011;9540;51.550;7.980;2023-04-30T02:08:52;17.00;;;10.77;;
18822;SDS011;9540;51.550;7.980;2023-04-30T02:11:19;21.07;;;10.77;;
18822;SDS011;9540;51.550;7.980;2023-04-30T02:13:48;17.00;;;11.43;;
18822;SDS011;9540;51.550;7.980;2023-04-30T02:16:16;14.33;;;9.87;;
18822;SDS011;9540;51.550;7.980;2023-04-30T02:18:44;19.10;;;11.63;;
18822;SDS011;9540;51.550;7.980;2023-04-30T02:21:11;15.67;;;9.27;;
18822;SDS011;9540;51.550;7.980;2023-04-30T02:23:39;14.83;;;9.10;;
18822;SDS011;9540;51.550;7.980;2023-04-30T02:26:06;15.43;;;9.70;;
18822;SDS011;9540;51.550;7.980;2023-04-30T02:28:33;14.60;;;9.50;;
18822;SDS011;9540;51.550;7.980;2023-04-30T02:31:01;13.13;;;9.53;;
18822;SDS011;9540;51.550;7.980;2023-04-30T02:33:29;16.37;;;9.97;;
18822;SDS011;9540;51.550;7.980;2023-04-30T02:35:57;17.67;;;10.20;;
18822;SDS011;9540;51.550;7.980;2023-04-30T02:38:25;17.47;;;11.03;;
18822;SDS011;9540;51.550;7.980;2023-04-30T02:40:52;19.83;;;10.70;;
18822;SDS011;9540;51.550;7.980;2023-04-30T02:43:19;16.17;;;10.23;;
18822;SDS011;9540;51.550;7.980;2023-04-30T02:45:46;12.77;;;8.83;;
18822;SDS011;9540;51.550;7.980;2023-04-30T02:48:14;15.37;;;8.30;;
18822;SDS011;9540;51.550;7.980;2023-04-30T02:50:42;13.07;;;8.03;;
18822;SDS011;9540;51.550;7.980;2023-04-30T02:53:09;16.23;;;8.90;;
18822;SDS011;9540;51.550;7.980;2023-04-30T02:55:36;16.27;;;9.10;;
18822;SDS011;9540;51.550;7.980;2023-04-30T02:58:04;15.70;;;10.07;;
18822;SDS011;9540;51.550;7.980;2023-04-30T03:00:31;15.13;;;9.17;;
18822;SDS011;9540;51.550;7.980;2023-04-30T03:02:58;14.13;;;8.23;;
18822;SDS011;9540;51.550;7.980;2023-04-30T03:05:25;20.07;;;10.70;;
18822;SDS011;9540;51.550;7.980;2023-04-30T03:07:55;14.90;;;9.17;;
18822;SDS011;9540;51.550;7.980;2023-04-30T03:10:22;17.57;;;9.10;;
18822;SDS011;9540;51.550;7.980;2023-04-30T03:12:49;12.73;;;8.13;;
18822;SDS011;9540;51.550;7.980;2023-04-30T03:15:17;13.20;;;8.67;;
18822;SDS011;9540;51.550;7.980;2023-04-30T03:17:45;13.13;;;8.03;;
18822;SDS011;9540;51.550;7.980;2023-04-30T03:20:12;14.73;;;8.33;;
18822;SDS011;9540;51.550;7.980;2023-04-30T03:22:39;10.00;;;7.53;;
18822;SDS011;9540;51.550;7.980;2023-04-30T03:25:08;16.20;;;7.90;;
18822;SDS011;9540;51.550;7.980;2023-04-30T03:27:35;11.93;;;7.60;;
18822;SDS011;9540;51.550;7.980;2023-04-30T03:30:03;14.83;;;9.00;;
18822;SDS011;9540;51.550;7.980;2023-04-30T03:32:31;13.33;;;7.43;;
18822;SDS011;9540;51.550;7.980;2023-04-30T03:34:58;13.73;;;8.17;;
18822;SDS011;9540;51.550;7.980;2023-04-30T03:37:25;12.17;;;7.43;;
18822;SDS011;9540;51.550;7.980;2023-04-30T03:39:52;9.37;;;6.73;;
18822;SDS011;9540;51.550;7.980;2023-04-30T03:42:21;11.30;;;6.93;;
18822;SDS011;9540;51.550;7.980;2023-04-30T03:44:48;10.33;;;7.43;;
18822;SDS011;9540;51.550;7.980;2023-04-30T03:47:15;12.70;;;8.37;;
18822;SDS011;9540;51.550;7.980;2023-04-30T03:49:42;12.07;;;7.53;;
18822;SDS011;9540;51.550;7.980;2023-04-30T03:52:09;19.10;;;9.87;;
18822;SDS011;9540;51.550;7.980;2023-04-30T03:54:37;13.57;;;9.00;;
18822;SDS011;9540;51.550;7.980;2023-04-30T03:57:04;16.73;;;9.10;;
18822;SDS011;9540;51.550;7.980;2023-04-30T03:59:33;11.93;;;8.77;;
18822;SDS011;9540;51.550;7.980;2023-04-30T04:02:00;16.60;;;8.47;;
18822;SDS011;9540;51.550;7.980;2023-04-30T04:04:27;14.73;;;8.57;;
18822;SDS011;9540;51.550;7.980;2023-04-30T04:06:55;15.90;;;9.23;;
18822;SDS011;9540;51.550;7.980;2023-04-30T04:09:22;16.07;;;10.07;;
18822;SDS011;9540;51.550;7.980;2023-04-30T04:11:49;15.43;;;9.50;;
18822;SDS011;9540;51.550;7.980;2023-04-30T04:14:16;14.23;;;9.53;;
18822;SDS011;9540;51.550;7.980;2023-04-30T04:16:44;14.07;;;9.37;;
18822;SDS011;9540;51.550;7.980;2023-04-30T04:19:12;14.27;;;9.37;;
18822;SDS011;9540;51.550;7.980;2023-04-30T04:21:39;20.57;;;11.00;;
18822;SDS011;9540;51.550;7.980;2023-04-30T04:24:06;18.27;;;9.80;;
18822;SDS011;9540;51.550;7.980;2023-04-30T04:26:33;16.27;;;10.10;;
18822;SDS011;9540;51.550;7.980;2023-04-30T04:29:01;15.63;;;9.80;;
18822;SDS011;9540;51.550;7.980;2023-04-30T04:31:29;17.53;;;10.60;;
18822;SDS011;9540;51.550;7.980;2023-04-30T04:33:58;18.77;;;11.70;;
18822;SDS011;9540;51.550;7.980;2023-04-30T04:36:26;15.80;;;10.10;;
18822;SDS011;9540;51.550;7.980;2023-04-30T04:38:54;19.70;;;11.47;;
18822;SDS011;9540;51.550;7.980;2023-04-30T04:41:26;18.30;;;11.50;;
18822;SDS011;9540;51.550;7.980;2023-04-30T04:43:53;15.93;;;10.40;;
18822;SDS011;9540;51.550;7.980;2023-04-30T04:46:20;15.63;;;9.97;;
18822;SDS011;9540;51.550;7.980;2023-04-30T04:48:47;19.93;;;11.77;;
18822;SDS011;9540;51.550;7.980;2023-04-30T04:51:16;22.03;;;11.73;;
18822;SDS011;9540;51.550;7.980;2023-04-30T04:53:43;25.10;;;14.20;;
18822;SDS011;9540;51.550;7.980;2023-04-30T04:56:10;22.20;;;12.53;;
18822;SDS011;9540;51.550;7.980;2023-04-30T04:58:38;24.67;;;13.07;;
18822;SDS011;9540;51.550;7.980;2023-04-30T05:01:06;20.13;;;12.07;;
18822;SDS011;9540;51.550;7.980;2023-04-30T05:03:34;28.67;;;15.93;;
18822;SDS011;9540;51.550;7.980;2023-04-30T05:06:02;37.03;;;19.13;;
18822;SDS011;9540;51.550;7.980;2023-04-30T05:08:30;32.03;;;18.10;;
18822;SDS011;9540;51.550;7.980;2023-04-30T05:10:58;32.30;;;19.10;;
18822;SDS011;9540;51.550;7.980;2023-04-30T05:13:25;31.87;;;19.47;;
18822;SDS011;9540;51.550;7.980;2023-04-30T05:15:52;32.37;;;19.17;;
18822;SDS011;9540;51.550;7.980;2023-04-30T05:18:19;33.93;;;19.97;;
18822;SDS011;9540;51.550;7.980;2023-04-30T05:20:46;32.27;;;19.27;;
18822;SDS011;9540;51.550;7.980;2023-04-30T05:23:13;36.00;;;20.87;;
18822;SDS011;9540;51.550;7.980;2023-04-30T05:25:42;34.57;;;18.83;;
18822;SDS011;9540;51.550;7.980;2023-04-30T05:28:09;28.60;;;18.20;;
18822;SDS011;9540;51.550;7.980;2023-04-30T05:30:37;36.47;;;19.40;;
18822;SDS011;9540;51.550;7.980;2023-04-30T05:33:04;34.38;;;20.08;;
18822;SDS011;9540;51.550;7.980;2023-04-30T05:35:31;29.00;;;17.15;;
18822;SDS011;9540;51.550;7.980;2023-04-30T05:38:00;31.87;;;18.50;;
18822;SDS011;9540;51.550;7.980;2023-04-30T05:40:27;26.75;;;17.25;;
18822;SDS011;9540;51.550;7.980;2023-04-30T05:42:56;34.47;;;18.48;;
18822;SDS011;9540;51.550;7.980;2023-04-30T05:45:23;28.10;;;17.23;;
18822;SDS011;9540;51.550;7.980;2023-04-30T05:47:51;22.85;;;15.75;;
18822;SDS011;9540;51.550;7.980;2023-04-30T05:50:18;21.05;;;15.63;;
18822;SDS011;9540;51.550;7.980;2023-04-30T05:52:45;21.65;;;14.90;;
18822;SDS011;9540;51.550;7.980;2023-04-30T05:55:12;24.20;;;15.98;;
18822;SDS011;9540;51.550;7.980;2023-04-30T05:57:40;19.77;;;14.68;;
18822;SDS011;9540;51.550;7.980;2023-04-30T06:00:09;20.92;;;14.80;;
18822;SDS011;9540;51.550;7.980;2023-04-30T06:02:36;20.35;;;14.43;;
18822;SDS011;9540;51.550;7.980;2023-04-30T06:05:04;25.90;;;15.80;;
18822;SDS011;9540;51.550;7.980;2023-04-30T06:07:33;21.30;;;15.00;;
18822;SDS011;9540;51.550;7.980;2023-04-30T06:10:00;23.40;;;14.23;;
18822;SDS011;9540;51.550;7.980;2023-04-30T06:12:27;21.17;;;14.30;;
18822;SDS011;9540;51.550;7.980;2023-04-30T06:14:54;22.52;;;13.10;;
18822;SDS011;9540;51.550;7.980;2023-04-30T06:17:23;19.50;;;12.25;;
18822;SDS011;9540;51.550;7.980;2023-04-30T06:19:50;21.80;;;12.52;;
18822;SDS011;9540;51.550;7.980;2023-04-30T06:22:17;23.50;;;13.48;;
18822;SDS011;9540;51.550;7.980;2023-04-30T06:24:44;18.85;;;11.38;;
18822;SDS011;9540;51.550;7.980;2023-04-30T06:27:11;14.93;;;11.40;;
18822;SDS011;9540;51.550;7.980;2023-04-30T06:29:38;16.30;;;10.95;;
18822;SDS011;9540;51.550;7.980;2023-04-30T06:32:05;17.77;;;11.43;;
18822;SDS011;9540;51.550;7.980;2023-04-30T06:34:34;20.70;;;11.98;;
18822;SDS011;9540;51.550;7.980;2023-04-30T06:37:02;16.60;;;10.38;;
18822;SDS011;9540;51.550;7.980;2023-04-30T06:39:29;16.05;;;9.30;;
18822;SDS011;9540;51.550;7.980;2023-04-30T06:41:56;16.50;;;9.50;;
18822;SDS011;9540;51.550;7.980;2023-04-30T06:44:23;15.40;;;9.55;;
18822;SDS011;9540;51.550;7.980;2023-04-30T06:46:50;13.45;;;9.77;;
18822;SDS011;9540;51.550;7.980;2023-04-30T06:49:17;15.52;;;8.35;;
18822;SDS011;9540;51.550;7.980;2023-04-30T06:51:46;13.05;;;8.90;;
18822;SDS011;9540;51.550;7.980;2023-04-30T06:54:13;13.43;;;8.52;;
18822;SDS011;9540;51.550;7.980;2023-04-30T06:56:40;14.70;;;8.93;;
18822;SDS011;9540;51.550;7.980;2023-04-30T06:59:08;13.18;;;8.95;;
18822;SDS011;9540;51.550;7.980;2023-04-30T07:01:35;11.57;;;7.50;;
18822;SDS011;9540;51.550;7.980;2023-04-30T07:04:02;11.73;;;8.35;;
18822;SDS011;9540;51.550;7.980;2023-04-30T07:06:29;13.75;;;8.30;;
18822;SDS011;9540;51.550;7.980;2023-04-30T07:08:58;15.00;;;8.13;;
18822;SDS011;9540;51.550;7.980;2023-04-30T07:11:25;13.10;;;8.38;;
18822;SDS011;9540;51.550;7.980;2023-04-30T07:13:52;12.00;;;7.75;;
18822;SDS011;9540;51.550;7.980;2023-04-30T07:16:19;13.38;;;8.35;;
18822;SDS011;9540;51.550;7.980;2023-04-30T07:18:47;13.00;;;8.02;;
18822;SDS011;9540;51.550;7.980;2023-04-30T07:21:14;11.15;;;7.55;;
18822;SDS011;9540;51.550;7.980;2023-04-30T07:23:41;10.10;;;6.93;;
18822;SDS011;9540;51.550;7.980;2023-04-30T07:26:11;9.25;;;7.05;;
18822;SDS011;9540;51.550;7.980;2023-04-30T07:28:38;9.55;;;7.28;;
18822;SDS011;9540;51.550;7.980;2023-04-30T07:31:05;11.18;;;6.75;;
18822;SDS011;9540;51.550;7.980;2023-04-30T07:33:32;10.77;;;6.72;;
18822;SDS011;9540;51.550;7.980;2023-04-30T07:35:59;9.10;;;6.88;;
18822;SDS011;9540;51.550;7.980;2023-04-30T07:38:27;11.20;;;7.53;;
18822;SDS011;9540;51.550;7.980;2023-04-30T07:40:54;12.20;;;7.20;;
18822;SDS011;9540;51.550;7.980;2023-04-30T07:43:23;13.15;;;7.00;;
18822;SDS011;9540;51.550;7.980;2023-04-30T07:45:50;10.13;;;6.78;;
18822;SDS011;9540;51.550;7.980;2023-04-30T07:48:18;9.57;;;7.82;;
18822;SDS011;9540;51.550;7.980;2023-04-30T07:50:46;13.30;;;6.93;;
18822;SDS011;9540;51.550;7.980;2023-04-30T07:53:13;10.63;;;6.93;;
18822;SDS011;9540;51.550;7.980;2023-04-30T07:55:40;10.73;;;6.60;;
18822;SDS011;9540;51.550;7.980;2023-04-30T07:58:07;11.93;;;7.68;;
18822;SDS011;9540;51.550;7.980;2023-04-30T08:00:36;10.02;;;6.68;;
18822;SDS011;9540;51.550;7.980;2023-04-30T08:03:03;11.02;;;7.07;;
18822;SDS011;9540;51.550;7.980;2023-04-30T08:05:30;7.60;;;6.05;;
18822;SDS011;9540;51.550;7.980;2023-04-30T08:07:57;10.02;;;6.10;;
18822;SDS011;9540;51.550;7.980;2023-04-30T08:10:24;9.63;;;6.38;;
18822;SDS011;9540;51.550;7.980;2023-04-30T08:12:52;11.63;;;6.60;;
18822;SDS011;9540;51.550;7.980;2023-04-30T08:15:19;9.32;;;6.50;;
18822;SDS011;9540;51.550;7.980;2023-04-30T08:17:49;11.27;;;6.50;;
18822;SDS011;9540;51.550;7.980;2023-04-30T08:20:17;7.75;;;5.10;;
18822;SDS011;9540;51.550;7.980;2023-04-30T08:22:45;6.65;;;4.75;;
18822;SDS011;9540;51.550;7.980;2023-04-30T08:25:12;10.85;;;5.60;;
18822;SDS011;9540;51.550;7.980;2023-04-30T08:27:39;6.90;;;4.22;;
18822;SDS011;9540;51.550;7.980;2023-04-30T08:30:06;7.47;;;4.97;;
18822;SDS011;9540;51.550;7.980;2023-04-30T08:32:34;5.18;;;4.50;;
18822;SDS011;9540;51.550;7.980;2023-04-30T08:35:04;6.45;;;4.50;;
18822;SDS011;9540;51.550;7.980;2023-04-30T08:37:32;10.00;;;5.43;;
18822;SDS011;9540;51.550;7.980;2023-04-30T08:39:59;8.02;;;4.90;;
18822;SDS011;9540;51.550;7.980;2023-04-30T08:42:28;6.32;;;4.90;;
18822;SDS011;9540;51.550;7.980;2023-04-30T08:44:57;7.32;;;3.60;;
18822;SDS011;9540;51.550;7.980;2023-04-30T08:47:26;4.72;;;3.90;;
18822;SDS011;9540;51.550;7.980;2023-04-30T08:49:53;8.45;;;3.85;;
18822;SDS011;9540;51.550;7.980;2023-04-30T08:52:22;7.30;;;4.05;;
18822;SDS011;9540;51.550;7.980;2023-04-30T08:54:52;5.90;;;4.03;;
18822;SDS011;9540;51.550;7.980;2023-04-30T08:57:22;11.18;;;4.45;;
18822;SDS011;9540;51.550;7.980;2023-04-30T08:59:50;6.03;;;4.47;;
18822;SDS011;9540;51.550;7.980;2023-04-30T09:02:17;8.77;;;5.10;;
18822;SDS011;9540;51.550;7.980;2023-04-30T09:04:44;6.78;;;4.93;;
18822;SDS011;9540;51.550;7.980;2023-04-30T09:07:12;8.02;;;5.53;;
18822;SDS011;9540;51.550;7.980;2023-04-30T09:09:41;6.15;;;4.93;;
18822;SDS011;9540;51.550;7.980;2023-04-30T09:12:12;9.30;;;5.43;;
18822;SDS011;9540;51.550;7.980;2023-04-30T09:14:42;10.95;;;5.65;;
18822;SDS011;9540;51.550;7.980;2023-04-30T09:17:24;6.28;;;4.82;;
18822;SDS011;9540;51.550;7.980;2023-04-30T09:19:51;5.47;;;4.93;;
18822;SDS011;9540;51.550;7.980;2023-04-30T09:22:19;6.93;;;5.15;;
18822;SDS011;9540;51.550;7.980;2023-04-30T09:24:49;7.88;;;4.40;;
18822;SDS011;9540;51.550;7.980;2023-04-30T09:27:17;8.95;;;5.18;;
18822;SDS011;9540;51.550;7.980;2023-04-30T09:29:45;7.80;;;4.47;;
18822;SDS011;9540;51.550;7.980;2023-04-30T09:32:12;7.68;;;4.88;;
18822;SDS011;9540;51.550;7.980;2023-04-30T09:34:40;4.82;;;3.90;;
18822;SDS011;9540;51.550;7.980;2023-04-30T09:37:07;6.28;;;4.32;;
18822;SDS011;9540;51.550;7.980;2023-04-30T09:42:20;5.80;;;4.30;;
18822;SDS011;9540;51.550;7.980;2023-04-30T09:44:48;6.72;;;4.35;;
18822;SDS011;9540;51.550;7.980;2023-04-30T09:47:16;6.50;;;4.53;;
18822;SDS011;9540;51.550;7.980;2023-04-30T09:49:46;7.18;;;4.43;;
18822;SDS011;9540;51.550;7.980;2023-04-30T09:52:16;6.53;;;4.15;;
18822;SDS011;9540;51.550;7.980;2023-04-30T09:54:45;6.82;;;4.68;;
18822;SDS011;9540;51.550;7.980;2023-04-30T09:57:15;5.10;;;4.60;;
18822;SDS011;9540;51.550;7.980;2023-04-30T09:59:44;6.95;;;4.80;;
18822;SDS011;9540;51.550;7.980;2023-04-30T10:02:13;8.43;;;4.57;;
18822;SDS011;9540;51.550;7.980;2023-04-30T10:04:41;11.32;;;5.45;;
18822;SDS011;9540;51.550;7.980;2023-04-30T10:07:11;5.38;;;4.15;;
18822;SDS011;9540;51.550;7.980;2023-04-30T10:09:43;7.97;;;4.68;;
18822;SDS011;9540;51.550;7.980;2023-04-30T10:12:18;6.72;;;4.40;;
18822;SDS011;9540;51.550;7.980;2023-04-30T10:14:50;6.75;;;4.32;;
18822;SDS011;9540;51.550;7.980;2023-04-30T10:17:20;6.47;;;4.20;;
18822;SDS011;9540;51.550;7.980;2023-04-30T10:19:53;6.07;;;4.15;;
18822;SDS011;9540;51.550;7.980;2023-04-30T10:22:24;7.53;;;3.72;;
18822;SDS011;9540;51.550;7.980;2023-04-30T10:24:52;4.78;;;3.38;;
18822;SDS011;9540;51.550;7.980;2023-04-30T10:27:21;4.40;;;3.55;;
18822;SDS011;9540;51.550;7.980;2023-04-30T10:29:48;3.85;;;3.28;;
18822;SDS011;9540;51.550;7.980;2023-04-30T10:32:16;4.70;;;3.65;;
18822;SDS011;9540;51.550;7.980;2023-04-30T10:34:47;6.70;;;2.90;;
18822;SDS011;9540;51.550;7.980;2023-04-30T10:37:21;3.88;;;3.58;;
18822;SDS011;9540;51.550;7.980;2023-04-30T10:39:53;5.43;;;3.45;;
18822;SDS011;9540;51.550;7.980;2023-04-30T10:42:22;4.22;;;3.90;;
18822;SDS011;9540;51.550;7.980;2023-04-30T10:44:49;6.55;;;3.78;;
18822;SDS011;9540;51.550;7.980;2023-04-30T10:47:17;3.30;;;3.00;;
18822;SDS011;9540;51.550;7.980;2023-04-30T10:49:45;3.08;;;2.78;;
18822;SDS011;9540;51.550;7.980;2023-04-30T10:52:13;3.97;;;2.58;;
18822;SDS011;9540;51.550;7.980;2023-04-30T10:54:51;3.17;;;2.65;;
18822;SDS011;9540;51.550;7.980;2023-04-30T10:57:18;3.75;;;2.92;;
18822;SDS011;9540;51.550;7.980;2023-04-30T10:59:52;4.55;;;3.78;;
18822;SDS011;9540;51.550;7.980;2023-04-30T11:02:40;5.57;;;3.17;;
18822;SDS011;9540;51.550;7.980;2023-04-30T11:05:11;3.35;;;2.83;;
18822;SDS011;9540;51.550;7.980;2023-04-30T11:07:46;4.82;;;2.90;;
18822;SDS011;9540;51.550;7.980;2023-04-30T11:10:14;2.78;;;2.35;;
18822;SDS011;9540;51.550;7.980;2023-04-30T11:12:48;5.45;;;2.45;;
18822;SDS011;9540;51.550;7.980;2023-04-30T11:15:16;4.13;;;2.55;;
18822;SDS011;9540;51.550;7.980;2023-04-30T11:17:45;3.95;;;2.83;;
18822;SDS011;9540;51.550;7.980;2023-04-30T11:20:13;4.18;;;2.70;;
18822;SDS011;9540;51.550;7.980;2023-04-30T11:22:44;5.22;;;2.50;;
18822;SDS011;9540;51.550;7.980;2023-04-30T11:25:12;3.63;;;2.38;;
18822;SDS011;9540;51.550;7.980;2023-04-30T11:27:44;2.45;;;2.15;;
18822;SDS011;9540;51.550;7.980;2023-04-30T11:30:14;3.45;;;2.83;;
18822;SDS011;9540;51.550;7.980;2023-04-30T11:32:42;3.55;;;2.55;;
18822;SDS011;9540;51.550;7.980;2023-04-30T11:35:12;2.75;;;2.53;;
18822;SDS011;9540;51.550;7.980;2023-04-30T11:37:42;2.55;;;2.35;;
18822;SDS011;9540;51.550;7.980;2023-04-30T11:40:10;4.75;;;3.15;;
18822;SDS011;9540;51.550;7.980;2023-04-30T11:42:39;5.57;;;2.63;;
18822;SDS011;9540;51.550;7.980;2023-04-30T11:45:08;4.57;;;2.45;;
18822;SDS011;9540;51.550;7.980;2023-04-30T11:47:41;4.55;;;2.85;;
18822;SDS011;9540;51.550;7.980;2023-04-30T11:50:10;5.53;;;2.65;;
18822;SDS011;9540;51.550;7.980;2023-04-30T11:52:38;4.90;;;3.03;;
18822;SDS011;9540;51.550;7.980;2023-04-30T11:55:07;4.03;;;2.60;;
18822;SDS011;9540;51.550;7.980;2023-04-30T11:57:39;2.95;;;2.47;;
18822;SDS011;9540;51.550;7.980;2023-04-30T12:00:08;4.45;;;2.85;;
18822;SDS011;9540;51.550;7.980;2023-04-30T12:02:36;3.78;;;2.45;;
18822;SDS011;9540;51.550;7.980;2023-04-30T12:05:05;2.13;;;1.92;;
18822;SDS011;9540;51.550;7.980;2023-04-30T12:07:43;2.40;;;2.05;;
18822;SDS011;9540;51.550;7.980;2023-04-30T12:10:11;2.72;;;2.10;;
18822;SDS011;9540;51.550;7.980;2023-04-30T12:12:38;3.35;;;2.05;;
18822;SDS011;9540;51.550;7.980;2023-04-30T12:15:12;3.88;;;2.47;;
18822;SDS011;9540;51.550;7.980;2023-04-30T12:17:41;4.85;;;2.80;;
18822;SDS011;9540;51.550;7.980;2023-04-30T12:20:11;4.72;;;2.65;;
18822;SDS011;9540;51.550;7.980;2023-04-30T12:22:39;3.08;;;2.55;;
18822;SDS011;9540;51.550;7.980;2023-04-30T12:25:07;4.88;;;2.50;;
18822;SDS011;9540;51.550;7.980;2023-04-30T12:27:38;2.90;;;2.03;;
18822;SDS011;9540;51.550;7.980;2023-04-30T12:30:06;4.43;;;2.38;;
18822;SDS011;9540;51.550;7.980;2023-04-30T12:32:36;2.92;;;2.53;;
18822;SDS011;9540;51.550;7.980;2023-04-30T12:35:05;4.90;;;2.60;;
18822;SDS011;9540;51.550;7.980;2023-04-30T12:37:34;5.97;;;3.33;;
18822;SDS011;9540;51.550;7.980;2023-04-30T12:40:01;2.80;;;2.50;;
18822;SDS011;9540;51.550;7.980;2023-04-30T12:42:32;3.90;;;2.85;;
18822;SDS011;9540;51.550;7.980;2023-04-30T12:45:01;4.28;;;2.90;;
18822;SDS011;9540;51.550;7.980;2023-04-30T12:47:28;5.95;;;3.05;;
18822;SDS011;9540;51.550;7.980;2023-04-30T12:49:55;3.20;;;2.90;;
18822;SDS011;9540;51.550;7.980;2023-04-30T12:52:23;6.18;;;2.75;;
18822;SDS011;9540;51.550;7.980;2023-04-30T12:54:52;4.32;;;3.20;;
18822;SDS011;9540;51.550;7.980;2023-04-30T12:57:20;5.07;;;3.35;;
18822;SDS011;9540;51.550;7.980;2023-04-30T12:59:57;5.80;;;3.70;;
18822;SDS011;9540;51.550;7.980;2023-04-30T13:02:26;4.57;;;3.42;;
18822;SDS011;9540;51.550;7.980;2023-04-30T13:04:56;9.18;;;3.60;;
18822;SDS011;9540;51.550;7.980;2023-04-30T13:07:23;6.20;;;3.75;;
18822;SDS011;9540;51.550;7.980;2023-04-30T13:09:50;5.68;;;2.80;;
18822;SDS011;9540;51.550;7.980;2023-04-30T13:12:19;5.93;;;3.00;;
18822;SDS011;9540;51.550;7.980;2023-04-30T13:14:46;4.80;;;3.55;;
18822;SDS011;9540;51.550;7.980;2023-04-30T13:17:13;4.57;;;2.88;;
18822;SDS011;9540;51.550;7.980;2023-04-30T13:19:40;6.43;;;3.58;;
18822;SDS011;9540;51.550;7.980;2023-04-30T13:22:07;7.43;;;3.28;;
18822;SDS011;9540;51.550;7.980;2023-04-30T13:24:34;4.15;;;3.33;;
18822;SDS011;9540;51.550;7.980;2023-04-30T13:27:03;6.15;;;3.00;;
18822;SDS011;9540;51.550;7.980;2023-04-30T13:29:30;6.13;;;2.90;;
18822;SDS011;9540;51.550;7.980;2023-04-30T13:31:57;2.70;;;2.50;;
18822;SDS011;9540;51.550;7.980;2023-04-30T13:34:24;3.53;;;2.60;;
18822;SDS011;9540;51.550;7.980;2023-04-30T13:36:51;7.22;;;2.58;;
18822;SDS011;9540;51.550;7.980;2023-04-30T13:39:18;4.65;;;2.63;;
18822;SDS011;9540;51.550;7.980;2023-04-30T13:41:46;6.60;;;2.88;;
18822;SDS011;9540;51.550;7.980;2023-04-30T13:44:15;3.45;;;2.53;;
18822;SDS011;9540;51.550;7.980;2023-04-30T13:46:42;3.65;;;2.30;;
18822;SDS011;9540;51.550;7.980;2023-04-30T13:49:10;4.90;;;2.95;;
18822;SDS011;9540;51.550;7.980;2023-04-30T13:51:37;4.35;;;2.78;;
18822;SDS011;9540;51.550;7.980;2023-04-30T13:54:04;3.97;;;2.35;;
18822;SDS011;9540;51.550;7.980;2023-04-30T13:56:31;4.78;;;2.35;;
18822;SDS011;9540;51.550;7.980;2023-04-30T13:58:58;3.95;;;2.00;;
18822;SDS011;9540;51.550;7.980;2023-04-30T14:01:27;3.40;;;2.33;;
18822;SDS011;9540;51.550;7.980;2023-04-30T14:03:55;4.43;;;2.00;;
18822;SDS011;9540;51.550;7.980;2023-04-30T14:06:22;5.72;;;2.35;;
18822;SDS011;9540;51.550;7.980;2023-04-30T14:08:49;3.28;;;1.80;;
18822;SDS011;9540;51.550;7.980;2023-04-30T14:11:16;3.30;;;1.80;;
18822;SDS011;9540;51.550;7.980;2023-04-30T14:13:43;1.70;;;1.50;;
18822;SDS011;9540;51.550;7.980;2023-04-30T14:16:11;4.05;;;1.70;;
18822;SDS011;9540;51.550;7.980;2023-04-30T14:18:40;5.97;;;1.80;;
18822;SDS011;9540;51.550;7.980;2023-04-30T14:21:08;2.38;;;1.83;;
18822;SDS011;9540;51.550;7.980;2023-04-30T14:23:35;5.95;;;2.30;;
18822;SDS011;9540;51.550;7.980;2023-04-30T14:26:03;5.68;;;1.98;;
18822;SDS011;9540;51.550;7.980;2023-04-30T14:28:31;4.43;;;1.80;;
18822;SDS011;9540;51.550;7.980;2023-04-30T14:30:59;5.07;;;2.08;;
18822;SDS011;9540;51.550;7.980;2023-04-30T14:33:27;2.78;;;1.60;;
18822;SDS011;9540;51.550;7.980;2023-04-30T14:35:56;3.72;;;2.03;;
18822;SDS011;9540;51.550;7.980;2023-04-30T14:38:24;3.45;;;2.08;;
18822;SDS011;9540;51.550;7.980;2023-04-30T14:40:52;3.35;;;1.65;;
18822;SDS011;9540;51.550;7.980;2023-04-30T14:43:20;2.95;;;1.48;;
18822;SDS011;9540;51.550;7.980;2023-04-30T14:45:50;4.03;;;2.38;;
18822;SDS011;9540;51.550;7.980;2023-04-30T14:48:18;1.80;;;1.70;;
18822;SDS011;9540;51.550;7.980;2023-04-30T14:50:45;2.67;;;1.77;;
18822;SDS011;9540;51.550;7.980;2023-04-30T14:53:13;2.20;;;1.70;;
18822;SDS011;9540;51.550;7.980;2023-04-30T14:55:41;3.38;;;1.40;;
18822;SDS011;9540;51.550;7.980;2023-04-30T14:58:08;6.80;;;2.05;;
18822;SDS011;9540;51.550;7.980;2023-04-30T15:00:36;3.03;;;1.50;;